Time;durP1;ratioP1;P1;durP2;ratioP2;P2;SDS_P1;SDS_P2;PMS_P1;PMS_P2;Temp;Humidity;BMP_temperature;BMP_pressure;BME280_temperature;BME280_humidity;BME280_pressure;Samples;Min_cycle;Max_cycle;Signal;HPM_P1;HPM_P2
2022/06/21 00:00:18;;;;;;;7.07;3.13;;;20.00;55.80;;;;;;5069694;28;20151;-71
2022/06/21 00:02:44;;;;;;;7.63;2.95;;;20.00;59.40;;;;;;5052684;28;20139;-71
2022/06/21 00:05:13;;;;;;;5.82;2.58;;;20.00;55.80;;;;;;5050661;28;20053;-72
2022/06/21 00:07:41;;;;;;;5.95;2.85;;;20.10;60.70;;;;;;5049896;28;20056;-72
2022/06/21 00:10:12;;;;;;;5.80;2.55;;;20.00;55.80;;;;;;5049946;28;20059;-72
2022/06/21 00:12:39;;;;;;;5.38;2.50;;;20.00;59.20;;;;;;5066526;28;20071;-71
2022/06/21 00:15:06;;;;;;;7.47;2.60;;;20.00;55.80;;;;;;5069789;28;20055;-71
2022/06/21 00:17:33;;;;;;;5.40;2.20;;;19.90;59.10;;;;;;5070652;28;20044;-71
2022/06/21 00:20:00;;;;;;;6.10;2.47;;;20.00;60.40;;;;;;5070634;28;20047;-71
2022/06/21 00:22:27;;;;;;;5.28;2.22;;;20.00;55.70;;;;;;5055308;28;20048;-71
2022/06/21 00:24:55;;;;;;;7.85;3.22;;;19.80;59.20;;;;;;5049532;28;20059;-72
2022/06/21 00:27:22;;;;;;;4.57;2.25;;;19.90;55.70;;;;;;5049259;28;20140;-72
2022/06/21 00:29:49;;;;;;;4.68;2.47;;;20.00;55.70;;;;;;5050493;28;20125;-72
2022/06/21 00:32:16;;;;;;;4.72;2.30;;;19.10;59.30;;;;;;5063443;28;20128;-72
2022/06/21 00:34:43;;;;;;;5.03;2.47;;;19.90;55.70;;;;;;5067939;28;20139;-72
2022/06/21 00:37:13;;;;;;;5.07;2.20;;;19.80;58.70;;;;;;5069363;28;20135;-72
2022/06/21 00:39:40;;;;;;;4.82;2.72;;;20.60;60.00;;;;;;5068791;28;20066;-72
2022/06/21 00:42:16;;;;;;;6.63;2.47;;;20.00;60.60;;;;;;5069519;28;20053;-72
2022/06/21 00:44:46;;;;;;;6.03;2.65;;;19.90;55.60;;;;;;5069058;28;20064;-72
2022/06/21 00:47:15;;;;;;;6.97;2.65;;;20.00;58.60;;;;;;5068807;28;20467;-72
2022/06/21 00:49:45;;;;;;;4.70;2.47;;;19.80;55.70;;;;;;5069955;28;20851;-72
2022/06/21 00:52:14;;;;;;;4.80;2.45;;;19.90;55.70;;;;;;5056759;28;20777;-72
2022/06/21 00:54:45;;;;;;;3.90;2.20;;;19.90;60.30;;;;;;5050201;28;20045;-72
2022/06/21 00:57:14;;;;;;;5.00;2.25;;;20.40;58.90;;;;;;5060771;28;20063;-72
2022/06/21 00:59:41;;;;;;;4.65;2.25;;;19.80;55.70;;;;;;5068831;28;20645;-72
2022/06/21 01:02:16;;;;;;;5.03;2.35;;;20.60;59.70;;;;;;5058096;28;20059;-72
2022/06/21 01:04:45;;;;;;;;;;;19.80;55.70;;;;;;5049024;28;20144;-72
2022/06/21 01:07:12;;;;;;;5.13;2.20;;;19.90;59.10;;;;;;5049814;28;20003;-72
2022/06/21 01:09:41;;;;;;;4.72;2.10;;;20.00;60.00;;;;;;5050047;28;20061;-72
2022/06/21 01:12:10;;;;;;;4.28;2.22;;;19.70;55.80;;;;;;5049492;28;20494;-72
2022/06/21 01:14:40;;;;;;;4.57;2.00;;;19.70;55.80;;;;;;5048391;28;20053;-72
2022/06/21 01:17:08;;;;;;;3.67;2.00;;;19.70;58.90;;;;;;5048269;28;20053;-72
2022/06/21 01:19:38;;;;;;;4.18;2.15;;;19.70;55.70;;;;;;5048142;28;20108;-72
2022/06/21 01:22:10;;;;;;;4.05;1.98;;;19.30;59.40;;;;;;5059995;28;20416;-72
2022/06/21 01:24:38;;;;;;;4.28;2.03;;;19.70;55.80;;;;;;5068059;28;20062;-72
2022/06/21 01:27:06;;;;;;;5.20;2.13;;;19.80;58.60;;;;;;5069739;28;20420;-72
2022/06/21 01:29:35;;;;;;;3.83;2.20;;;19.70;55.80;;;;;;5069268;28;20074;-72
2022/06/21 01:32:03;;;;;;;4.72;2.15;;;19.30;60.00;;;;;;5068684;28;20093;-72
2022/06/21 01:34:30;;;;;;;4.57;2.10;;;19.70;55.70;;;;;;5067969;28;20082;-72
2022/06/21 01:37:00;;;;;;;4.60;2.10;;;19.60;57.20;;;;;;5068063;28;20054;-72
2022/06/21 01:39:29;;;;;;;4.32;1.85;;;19.70;59.30;;;;;;5069183;28;20048;-72
2022/06/21 01:41:58;;;;;;;3.22;1.60;;;19.70;55.70;;;;;;5059056;28;20538;-72
2022/06/21 01:44:28;;;;;;;2.92;1.75;;;20.80;60.50;;;;;;5047518;28;20060;-72
2022/06/21 01:46:55;;;;;;;4.13;2.13;;;19.40;60.00;;;;;;5049067;28;20040;-72
2022/06/21 01:49:23;;;;;;;5.10;1.90;;;19.00;59.90;;;;;;5048908;28;20565;-72
2022/06/21 01:51:52;;;;;;;4.03;2.00;;;19.50;59.90;;;;;;5048902;28;20122;-72
2022/06/21 01:54:21;;;;;;;3.55;1.80;;;20.80;60.60;;;;;;5048592;28;20131;-72
2022/06/21 01:56:48;;;;;;;4.70;2.15;;;19.60;59.60;;;;;;5057174;28;20076;-72
2022/06/21 01:59:18;;;;;;;3.67;2.03;;;18.70;60.10;;;;;;5068915;28;20071;-72
2022/06/21 02:01:47;;;;;;;3.92;1.92;;;19.60;55.60;;;;;;5066904;28;20056;-72
2022/06/21 02:04:16;;;;;;;3.55;1.80;;;19.60;60.20;;;;;;5068931;28;20055;-72
2022/06/21 02:06:43;;;;;;;3.35;1.73;;;19.60;55.70;;;;;;5067952;28;20090;-72
2022/06/21 02:09:13;;;;;;;4.93;2.10;;;19.60;55.70;;;;;;5068816;28;20045;-72
2022/06/21 02:11:41;;;;;;;4.05;1.88;;;19.60;55.70;;;;;;5068201;28;20084;-72
2022/06/21 02:14:30;;;;;;;3.88;1.90;;;19.30;60.00;;;;;;5067556;28;20088;-72
2022/06/21 02:17:09;;;;;;;3.03;1.63;;;18.90;57.10;;;;;;5068699;28;20098;-71
2022/06/21 02:19:39;;;;;;;3.53;1.65;;;19.50;55.70;;;;;;5068602;28;20051;-72
2022/06/21 02:22:06;;;;;;;3.58;1.80;;;19.40;55.70;;;;;;5054456;28;20056;-72
2022/06/21 02:24:33;;;;;;;3.53;2.00;;;19.50;55.70;;;;;;5054081;28;20045;-70
2022/06/21 02:27:00;;;;;;;3.65;1.75;;;19.50;58.70;;;;;;5067583;28;20052;-72
2022/06/21 02:29:27;;;;;;;2.65;1.50;;;19.50;60.70;;;;;;5067112;28;20052;-72
2022/06/21 02:31:54;;;;;;;3.28;1.95;;;19.60;60.00;;;;;;5067417;28;20044;-71
2022/06/21 02:34:24;;;;;;;3.63;1.70;;;19.50;59.50;;;;;;5060379;28;20049;-72
2022/06/21 02:36:53;;;;;;;3.05;1.60;;;19.50;55.70;;;;;;5048726;28;20402;-72
2022/06/21 02:39:20;;;;;;;2.83;1.40;;;19.50;55.70;;;;;;5048644;28;20516;-71
2022/06/21 02:41:49;;;;;;;2.72;1.67;;;19.40;60.40;;;;;;5057290;28;20048;-72
2022/06/21 02:44:19;;;;;;;2.70;1.67;;;19.50;55.80;;;;;;5068141;28;20051;-72
2022/06/21 02:46:47;;;;;;;3.47;1.60;;;19.40;55.70;;;;;;5067509;28;20735;-72
2022/06/21 02:49:16;;;;;;;3.92;1.70;;;19.40;55.70;;;;;;5068598;28;20048;-72
2022/06/21 02:51:45;;;;;;;2.50;1.58;;;18.40;59.50;;;;;;5058930;28;20136;-72
2022/06/21 02:54:13;;;;;;;3.33;1.65;;;19.30;60.90;;;;;;5048183;28;20075;-70
2022/06/21 02:56:42;;;;;;;2.67;1.70;;;18.80;60.00;;;;;;5055215;28;20062;-70
2022/06/21 02:59:09;;;;;;;3.63;1.65;;;19.40;55.80;;;;;;5071192;28;20139;-72
2022/06/21 03:01:38;;;;;;;2.85;1.55;;;19.30;55.70;;;;;;5065380;28;20420;-72
2022/06/21 03:04:05;;;;;;;3.35;1.50;;;19.40;56.10;;;;;;5050401;28;20048;-72
2022/06/21 03:06:32;;;;;;;3.05;1.50;;;19.30;55.70;;;;;;5052065;28;20045;-72
2022/06/21 03:09:03;;;;;;;2.38;1.40;;;19.50;60.00;;;;;;5065416;28;20127;-72
2022/06/21 03:11:32;;;;;;;2.65;1.50;;;19.30;59.90;;;;;;5072388;28;20486;-72
2022/06/21 03:14:01;;;;;;;3.60;1.70;;;19.30;55.70;;;;;;5070411;28;20048;-72
2022/06/21 03:16:28;;;;;;;2.58;1.58;;;19.30;59.90;;;;;;5053745;28;20418;-72
2022/06/21 03:18:55;;;;;;;3.67;1.70;;;19.40;60.90;;;;;;5057483;28;20057;-72
2022/06/21 03:21:26;;;;;;;2.22;1.50;;;19.30;59.60;;;;;;5062052;28;20055;-72
2022/06/21 03:23:53;;;;;;;2.92;1.63;;;19.80;61.00;;;;;;5071573;28;20072;-71
2022/06/21 03:26:21;;;;;;;3.17;1.40;;;19.30;61.00;;;;;;5070635;28;20062;-71
2022/06/21 03:28:47;;;;;;;3.00;1.52;;;19.30;55.70;;;;;;5070960;28;20097;-72
2022/06/21 03:31:17;;;;;;;2.42;1.50;;;19.40;59.90;;;;;;5071647;28;20056;-72
2022/06/21 03:33:45;;;;;;;2.55;1.30;;;19.20;55.70;;;;;;5070194;28;20140;-72
2022/06/21 03:36:15;;;;;;;2.22;1.50;;;19.30;55.80;;;;;;5070714;28;20076;-72
2022/06/21 03:38:44;;;;;;;2.58;1.40;;;19.20;60.60;;;;;;5060593;28;20060;-72
2022/06/21 03:43:59;;;;;;;2.08;1.30;;;19.40;56.90;;;;;;5049273;28;20127;-71
2022/06/21 03:46:28;;;;;;;1.85;1.25;;;19.20;55.70;;;;;;5051441;28;20057;-71
2022/06/21 03:48:56;;;;;;;3.38;1.45;;;20.00;60.00;;;;;;5063301;28;20115;-72
2022/06/21 03:51:27;;;;;;;2.38;1.42;;;19.30;60.20;;;;;;5071659;28;20068;-71
2022/06/21 03:53:56;;;;;;;3.05;1.52;;;19.20;55.80;;;;;;5071120;28;20044;-71
2022/06/21 03:56:26;;;;;;;1.98;1.30;;;19.30;59.90;;;;;;5070013;28;20063;-72
2022/06/21 03:58:59;;;;;;;2.47;1.20;;;19.00;59.80;;;;;;5070508;28;20131;-71
2022/06/21 04:01:27;;;;;;;1.42;1.20;;;19.30;61.10;;;;;;5069457;28;20041;-72
2022/06/21 04:03:57;;;;;;;2.95;1.40;;;19.20;55.80;;;;;;5064860;28;20549;-71
2022/06/21 04:06:28;;;;;;;2.63;1.35;;;17.90;59.70;;;;;;5050065;28;20061;-71
2022/06/21 04:09:01;;;;;;;3.60;1.30;;;19.20;60.10;;;;;;5061511;28;20144;-71
2022/06/21 04:11:30;;;;;;;2.15;1.38;;;19.20;60.30;;;;;;5070897;28;20383;-72
2022/06/21 04:13:59;;;;;;;2.67;1.30;;;19.10;60.90;;;;;;5069625;28;20048;-72
2022/06/21 04:16:28;;;;;;;2.20;1.30;;;19.10;55.80;;;;;;5070518;28;20676;-72
2022/06/21 04:18:58;;;;;;;2.60;1.42;;;19.00;59.60;;;;;;5070089;28;20410;-72
2022/06/21 04:21:27;;;;;;;2.28;1.20;;;19.80;61.30;;;;;;5068955;28;20048;-71
2022/06/21 04:23:58;;;;;;;2.45;1.20;;;18.80;60.30;;;;;;5069582;28;20080;-72
2022/06/21 04:26:27;;;;;;;2.38;1.40;;;19.10;60.40;;;;;;5069335;28;20048;-71
2022/06/21 04:28:55;;;;;;;2.78;1.35;;;19.10;59.60;;;;;;5057610;28;20056;-71
2022/06/21 04:31:26;;;;;;;2.55;1.25;;;19.10;60.30;;;;;;5049583;28;20450;-71
2022/06/21 04:33:55;;;;;;;2.40;1.20;;;19.20;60.00;;;;;;5050313;28;20048;-71
2022/06/21 04:36:24;;;;;;;2.33;1.20;;;19.10;55.70;;;;;;5050586;28;20083;-72
2022/06/21 04:38:53;;;;;;;1.50;1.10;;;19.10;55.70;;;;;;5060290;28;20605;-71
2022/06/21 04:41:23;;;;;;;2.50;1.30;;;19.20;59.80;;;;;;5069859;28;20041;-71
2022/06/21 04:43:58;;;;;;;2.08;1.13;;;18.90;60.10;;;;;;5069974;28;20055;-72
2022/06/21 04:46:30;;;;;;;2.00;1.30;;;19.30;59.70;;;;;;5070437;28;20056;-72
2022/06/21 04:49:00;;;;;;;1.80;1.20;;;19.10;55.70;;;;;;5057644;28;20053;-71
2022/06/21 04:51:28;;;;;;;2.80;1.40;;;19.00;60.90;;;;;;5050447;28;20045;-72
2022/06/21 04:53:58;;;;;;;1.92;1.30;;;19.10;60.20;;;;;;5050002;28;20055;-72
2022/06/21 04:56:29;;;;;;;2.60;1.20;;;19.10;59.80;;;;;;5055097;28;20606;-72
2022/06/21 04:58:56;;;;;;;2.08;1.20;;;19.00;60.10;;;;;;5068122;28;20056;-71
2022/06/21 05:01:32;;;;;;;1.75;1.20;;;19.10;59.70;;;;;;5069507;28;20040;-72
2022/06/21 05:04:03;;;;;;;1.42;1.17;;;19.40;60.70;;;;;;5069819;28;20079;-72
2022/06/21 05:06:29;;;;;;;1.95;1.15;;;20.20;61.00;;;;;;5068627;28;20123;-71
2022/06/21 05:08:56;;;;;;;2.60;1.30;;;18.20;60.60;;;;;;5067775;28;20103;-71
2022/06/21 05:11:23;;;;;;;2.45;1.27;;;18.90;60.10;;;;;;5069684;28;20056;-72
2022/06/21 05:13:51;;;;;;;2.28;1.10;;;19.10;55.80;;;;;;5069201;28;20052;-71
2022/06/21 05:16:22;;;;;;;1.80;1.23;;;18.80;59.90;;;;;;5068658;28;20135;-71
2022/06/21 05:18:51;;;;;;;2.63;1.20;;;19.10;59.70;;;;;;5068661;28;20049;-72
2022/06/21 05:21:22;;;;;;;1.88;1.05;;;18.90;59.80;;;;;;5069406;28;20132;-71
2022/06/21 05:23:49;;;;;;;2.75;1.30;;;19.30;60.30;;;;;;5069056;28;20051;-72
2022/06/21 05:26:18;;;;;;;2.97;1.20;;;19.00;59.30;;;;;;5069816;28;20055;-71
2022/06/21 05:28:48;;;;;;;1.65;1.10;;;20.50;61.50;;;;;;5060278;28;20048;-72
2022/06/21 05:31:17;;;;;;;2.10;1.35;;;19.10;55.70;;;;;;5048525;28;20056;-71
2022/06/21 05:33:45;;;;;;;2.88;1.30;;;18.50;59.20;;;;;;5048847;28;20552;-71
2022/06/21 05:36:14;;;;;;;2.67;1.13;;;19.20;60.70;;;;;;5049265;28;20049;-71
2022/06/21 05:38:50;;;;;;;1.63;1.20;;;19.10;55.60;;;;;;5055898;28;20181;-71
2022/06/21 05:41:30;;;;;;;1.75;0.93;;;19.20;60.10;;;;;;5067997;28;20045;-71
2022/06/21 05:44:00;;;;;;;3.47;1.15;;;19.30;55.70;;;;;;5067750;28;20059;-72
2022/06/21 05:46:27;;;;;;;1.63;1.20;;;19.30;55.50;;;;;;5067917;28;20091;-71
2022/06/21 05:48:55;;;;;;;2.22;1.13;;;19.40;60.50;;;;;;5058979;28;20472;-71
2022/06/21 05:51:24;;;;;;;2.30;1.20;;;19.40;60.20;;;;;;5057582;28;20149;-72
2022/06/21 05:53:54;;;;;;;2.20;1.20;;;19.50;55.50;;;;;;5067930;28;20052;-72
2022/06/21 05:56:22;;;;;;;2.10;1.20;;;19.60;55.30;;;;;;5067650;28;20040;-73
2022/06/21 05:58:52;;;;;;;2.45;1.10;;;19.80;60.40;;;;;;5067104;28;20058;-72
2022/06/21 06:01:21;;;;;;;1.98;0.98;;;20.00;59.50;;;;;;5067383;28;20045;-72
2022/06/21 06:03:50;;;;;;;2.15;1.00;;;19.30;59.60;;;;;;5067311;28;20056;-71
2022/06/21 06:06:19;;;;;;;2.95;1.50;;;19.90;55.00;;;;;;5067932;28;20056;-71
2022/06/21 06:08:47;;;;;;;1.70;1.00;;;20.00;55.00;;;;;;5066707;28;20067;-71
2022/06/21 06:11:17;;;;;;;2.28;1.00;;;19.90;59.10;;;;;;5067878;28;20049;-71
2022/06/21 06:13:44;;;;;;;1.75;1.13;;;20.10;54.70;;;;;;5068516;28;20056;-70
2022/06/21 06:16:30;;;;;;;1.58;1.15;;;20.30;60.20;;;;;;5068005;28;20063;-71
2022/06/21 06:19:00;;;;;;;2.65;1.10;;;20.10;58.20;;;;;;5057891;28;20135;-71
2022/06/21 06:21:29;;;;;;;3.08;1.30;;;20.40;58.40;;;;;;5047715;28;20533;-71
2022/06/21 06:23:57;;;;;;;1.88;1.10;;;20.40;54.10;;;;;;5058263;28;20055;-71
2022/06/21 06:26:27;;;;;;;2.55;0.90;;;20.50;54.10;;;;;;5067208;28;20131;-71
2022/06/21 06:28:57;;;;;;;2.80;1.30;;;19.40;57.90;;;;;;5056076;28;20103;-71
2022/06/21 06:31:28;;;;;;;3.92;1.13;;;20.50;54.00;;;;;;5054323;28;20428;-71
2022/06/21 06:33:56;;;;;;;2.70;1.30;;;20.50;58.30;;;;;;5052968;28;20411;-71
2022/06/21 06:36:24;;;;;;;3.92;1.45;;;20.50;58.00;;;;;;5059144;28;20144;-72
2022/06/21 06:38:52;;;;;;;5.85;1.40;;;20.60;57.70;;;;;;5059206;28;20063;-71
2022/06/21 06:41:23;;;;;;;3.97;1.50;;;20.50;54.30;;;;;;5060737;28;20045;-71
2022/06/21 06:43:54;;;;;;;4.25;1.63;;;20.80;58.20;;;;;;5061512;28;20052;-71
2022/06/21 06:46:26;;;;;;;3.63;1.50;;;20.60;54.00;;;;;;5061215;28;20044;-71
2022/06/21 06:49:00;;;;;;;3.75;1.30;;;19.70;58.40;;;;;;5063386;28;20561;-71
2022/06/21 06:51:43;;;;;;;2.67;1.45;;;20.50;54.00;;;;;;5052187;28;20072;-71
2022/06/21 06:54:14;;;;;;;5.47;1.52;;;20.70;53.90;;;;;;5052858;28;20183;-71
2022/06/21 06:56:47;;;;;;;5.18;1.50;;;19.80;57.80;;;;;;5059036;28;20053;-71
2022/06/21 06:59:15;;;;;;;3.63;1.30;;;20.90;53.70;;;;;;5070392;28;20082;-70
2022/06/21 07:01:44;;;;;;;2.90;1.38;;;21.10;58.40;;;;;;5071712;28;20053;-70
2022/06/21 07:04:12;;;;;;;2.85;1.13;;;21.10;53.40;;;;;;5070569;28;20547;-70
2022/06/21 07:06:42;;;;;;;2.00;1.30;;;20.40;57.30;;;;;;5070967;28;20059;-71
2022/06/21 07:09:17;;;;;;;3.10;1.10;;;21.30;57.90;;;;;;5070067;28;20136;-70
2022/06/21 07:11:50;;;;;;;3.30;1.25;;;21.80;58.20;;;;;;5065018;28;20045;-71
2022/06/21 07:14:20;;;;;;;3.38;1.25;;;21.60;57.70;;;;;;5051452;28;20048;-70
2022/06/21 07:16:47;;;;;;;1.13;0.90;;;21.70;58.30;;;;;;5050650;28;20052;-70
2022/06/21 07:19:15;;;;;;;4.00;1.42;;;21.80;56.70;;;;;;5056877;28;20067;-71
2022/06/21 07:21:42;;;;;;;3.08;1.30;;;21.70;52.70;;;;;;5050757;28;20041;-71
2022/06/21 07:24:10;;;;;;;4.57;1.20;;;21.70;56.90;;;;;;5051134;28;20605;-70
2022/06/21 07:26:39;;;;;;;3.05;1.20;;;22.10;56.80;;;;;;5051597;28;20061;-71
2022/06/21 07:29:10;;;;;;;2.15;1.20;;;22.00;52.30;;;;;;5059023;28;20136;-70
2022/06/21 07:31:40;;;;;;;4.05;1.10;;;22.00;56.60;;;;;;5065083;28;20048;-70
2022/06/21 07:34:09;;;;;;;3.30;1.00;;;22.00;57.70;;;;;;5070623;28;20051;-70
2022/06/21 07:36:39;;;;;;;1.55;1.10;;;22.10;52.10;;;;;;5062234;28;20048;-71
2022/06/21 07:39:07;;;;;;;1.50;1.00;;;22.10;52.00;;;;;;5050328;28;20131;-69
2022/06/21 07:41:36;;;;;;;1.88;1.20;;;22.10;52.10;;;;;;5057914;28;20037;-70
2022/06/21 07:44:05;;;;;;;2.97;1.38;;;22.20;57.00;;;;;;5065721;28;20041;-71
2022/06/21 07:46:33;;;;;;;3.30;1.40;;;22.10;52.10;;;;;;5062132;28;20120;-70
2022/06/21 07:49:05;;;;;;;12.07;1.58;;;22.30;56.00;;;;;;5060545;28;20060;-71
2022/06/21 07:51:36;;;;;;;1.80;1.00;;;21.90;56.70;;;;;;5055293;28;20252;-71
2022/06/21 07:54:06;;;;;;;4.57;1.25;;;22.00;56.90;;;;;;5060592;28;20044;-71
2022/06/21 07:56:34;;;;;;;1.80;0.98;;;22.10;56.90;;;;;;5060906;28;20049;-70
2022/06/21 07:59:02;;;;;;;1.90;1.20;;;21.70;56.90;;;;;;5056453;28;20041;-71
2022/06/21 08:07:06;;;;;;;3.90;1.20;;;22.10;54.60;;;;;;5060735;28;20044;-71
2022/06/21 08:09:34;;;;;;;2.85;1.20;;;22.20;52.10;;;;;;5059811;28;20044;-70
2022/06/21 08:12:02;;;;;;;2.55;1.00;;;22.30;52.00;;;;;;5060262;28;20490;-71
2022/06/21 08:14:30;;;;;;;1.40;1.08;;;22.30;51.90;;;;;;5059557;28;20127;-70
2022/06/21 08:16:58;;;;;;;1.08;0.80;;;22.40;52.00;;;;;;5056717;28;20056;-71
2022/06/21 08:19:29;;;;;;;3.30;1.10;;;22.50;51.90;;;;;;5064553;28;20681;-71
2022/06/21 08:21:57;;;;;;;2.47;1.02;;;22.40;51.80;;;;;;5070817;28;20127;-71
2022/06/21 08:24:26;;;;;;;1.98;1.02;;;23.20;56.30;;;;;;5070657;28;20091;-71
2022/06/21 08:26:54;;;;;;;5.15;1.10;;;22.50;51.80;;;;;;5060750;28;20053;-71
2022/06/21 08:29:24;;;;;;;2.03;1.02;;;22.60;51.80;;;;;;5050500;28;20044;-71
2022/06/21 08:31:52;;;;;;;2.13;1.10;;;22.60;55.90;;;;;;5052743;28;20068;-70
2022/06/21 08:34:21;;;;;;;1.80;1.00;;;22.70;55.70;;;;;;5062213;28;20051;-71
2022/06/21 08:36:51;;;;;;;5.55;1.13;;;24.10;56.70;;;;;;5062493;28;20088;-71
2022/06/21 08:39:20;;;;;;;2.85;1.40;;;22.70;57.00;;;;;;5061467;28;20037;-71
2022/06/21 08:41:58;;;;;;;3.50;1.20;;;22.60;55.60;;;;;;5054076;28;20041;-71
2022/06/21 08:48:05;;;;;;;2.50;1.00;;;22.70;51.80;;;;;;5049814;28;20226;-71
2022/06/21 08:50:56;;;;;;;1.92;1.20;;;22.20;56.80;;;;;;5049711;28;20048;-70
2022/06/21 08:53:35;;;;;;;9.23;1.60;;;22.60;51.70;;;;;;5045591;28;20124;-71
2022/06/21 08:56:03;;;;;;;2.65;1.30;;;22.50;56.00;;;;;;5055978;28;20548;-71
2022/06/21 08:58:38;;;;;;;1.52;1.00;;;22.50;51.60;;;;;;5066917;28;20045;-71
2022/06/21 09:01:08;;;;;;;4.30;1.05;;;22.40;51.20;;;;;;5069610;28;20512;-71
2022/06/21 09:03:54;;;;;;;2.42;1.48;;;22.40;51.60;;;;;;5067546;28;20185;-71
2022/06/21 09:06:25;;;;;;;2.47;1.30;;;22.40;51.70;;;;;;5070005;28;20131;-70
2022/06/21 09:09:00;;;;;;;3.38;1.10;;;22.40;51.80;;;;;;5069608;28;20052;-70
2022/06/21 09:11:32;;;;;;;2.80;1.10;;;22.40;57.20;;;;;;5069814;28;20044;-70
2022/06/21 09:14:20;;;;;;;5.30;1.30;;;22.40;51.90;;;;;;5053386;28;20059;-72
2022/06/21 09:16:51;;;;;;;1.90;1.05;;;22.50;52.00;;;;;;5045550;28;20059;-70
2022/06/21 09:19:24;;;;;;;2.20;1.40;;;22.60;55.50;;;;;;5047103;28;20064;-71
2022/06/21 09:21:55;;;;;;;2.72;1.20;;;22.60;56.70;;;;;;5049483;28;20045;-71
2022/06/21 09:24:35;;;;;;;2.60;1.27;;;22.60;56.00;;;;;;5065386;28;20084;-71
2022/06/21 09:27:04;;;;;;;5.07;1.85;;;22.70;54.00;;;;;;5069767;28;20416;-70
2022/06/21 09:29:32;;;;;;;3.25;1.60;;;22.60;52.00;;;;;;5069513;28;20147;-71
2022/06/21 09:32:07;;;;;;;2.80;1.10;;;21.70;55.90;;;;;;5069477;28;20056;-70
2022/06/21 09:34:37;;;;;;;1.95;1.10;;;22.60;55.90;;;;;;5048689;28;20067;-71
2022/06/21 09:37:16;;;;;;;1.75;1.15;;;26.20;56.30;;;;;;5031573;28;20537;-70
2022/06/21 09:39:50;;;;;;;2.08;1.20;;;19.90;54.90;;;;;;5048447;28;20424;-71
2022/06/21 09:42:21;;;;;;;3.80;1.40;;;22.70;55.20;;;;;;5049037;28;20505;-70
2022/06/21 09:44:49;;;;;;;1.95;1.17;;;20.60;55.80;;;;;;5049082;28;20049;-70
2022/06/21 09:47:17;;;;;;;1.80;0.93;;;22.40;54.40;;;;;;5064938;28;20127;-70
2022/06/21 09:49:47;;;;;;;2.03;1.20;;;22.60;51.90;;;;;;5069385;28;20056;-71
2022/06/21 09:52:21;;;;;;;2.78;1.17;;;22.60;51.90;;;;;;5068719;28;20048;-70
2022/06/21 09:54:53;;;;;;;1.40;1.02;;;22.60;51.90;;;;;;5056115;28;20635;-70
2022/06/21 09:57:25;;;;;;;2.35;1.10;;;22.90;56.30;;;;;;5056978;28;20127;-71
2022/06/21 09:59:55;;;;;;;3.67;1.13;;;22.60;52.00;;;;;;5058655;28;20058;-71
2022/06/21 10:02:26;;;;;;;1.67;0.93;;;22.60;52.00;;;;;;5055691;28;20041;-70
2022/06/21 10:04:58;;;;;;;1.52;1.02;;;21.50;54.50;;;;;;5061367;28;20056;-70
2022/06/21 10:07:30;;;;;;;1.27;1.10;;;22.30;55.60;;;;;;5047392;28;20542;-70
2022/06/21 10:10:03;;;;;;;1.40;1.05;;;22.50;52.00;;;;;;5047710;28;20127;-70
2022/06/21 10:12:35;;;;;;;1.58;0.98;;;22.30;55.30;;;;;;5048832;28;20051;-70
2022/06/21 10:15:17;;;;;;;4.95;1.63;;;22.20;55.90;;;;;;5048639;28;20060;-71
2022/06/21 10:18:07;;;;;;;2.90;1.50;;;22.50;51.80;;;;;;5048568;28;20536;-70
2022/06/21 10:20:43;;;;;;;2.17;1.13;;;21.90;56.30;;;;;;5048711;28;20049;-70
2022/06/21 10:23:22;;;;;;;2.35;1.23;;;22.40;56.50;;;;;;5047313;28;20061;-71
2022/06/21 10:25:55;;;;;;;3.40;1.10;;;22.50;52.00;;;;;;5048640;28;20045;-70
2022/06/21 10:28:35;;;;;;;2.88;1.15;;;22.30;56.80;;;;;;5048629;28;20049;-70
2022/06/21 10:31:38;;;;;;;4.78;1.02;;;22.30;56.50;;;;;;5056079;28;20048;-70
2022/06/21 10:34:40;;;;;;;1.10;0.98;;;22.40;52.10;;;;;;5040447;28;20056;-70
2022/06/21 10:37:18;;;;;;;1.73;1.17;;;22.10;54.20;;;;;;5030769;28;20137;-70
2022/06/21 10:40:03;;;;;;;2.50;1.10;;;22.20;56.00;;;;;;5068954;28;20053;-70
2022/06/21 10:42:47;;;;;;;4.73;1.20;;;22.30;52.20;;;;;;5026223;28;20045;-70
2022/06/21 10:45:31;;;;;;;2.80;1.08;;;22.50;55.80;;;;;;5047437;28;20053;-70
2022/06/21 10:48:17;;;;;;;1.13;0.90;;;22.60;57.30;;;;;;5048200;28;20049;-70
2022/06/21 10:50:48;;;;;;;1.88;1.23;;;22.20;52.50;;;;;;5050020;28;20062;-70
2022/06/21 10:53:39;;;;;;;1.13;1.00;;;22.00;56.10;;;;;;5068024;28;20055;-70
2022/06/21 10:59:08;;;;;;;1.90;1.15;;;22.20;52.60;;;;;;5054870;28;20048;-70
2022/06/21 11:01:38;;;;;;;2.53;1.30;;;23.30;58.00;;;;;;5054138;28;20048;-70
2022/06/21 11:04:20;;;;;;;2.88;1.02;;;22.80;56.20;;;;;;5066458;28;20060;-70
2022/06/21 11:06:50;;;;;;;1.35;1.00;;;21.50;56.50;;;;;;5067133;28;20127;-70
2022/06/21 11:09:20;;;;;;;1.83;1.13;;;22.40;56.80;;;;;;5066918;28;20049;-70
2022/06/21 11:11:50;;;;;;;2.83;1.27;;;22.20;52.60;;;;;;5066309;28;20057;-70
2022/06/21 11:14:25;;;;;;;1.90;1.10;;;22.30;56.60;;;;;;5066698;28;20127;-70
2022/06/21 11:16:57;;;;;;;1.80;1.20;;;22.80;56.90;;;;;;5068673;28;20055;-70
2022/06/21 11:19:29;;;;;;;1.38;0.88;;;22.40;57.10;;;;;;5071347;28;20131;-70
2022/06/21 11:22:06;;;;;;;2.03;1.13;;;22.40;55.90;;;;;;5055195;28;20080;-70
2022/06/21 11:24:39;;;;;;;2.20;1.00;;;22.30;57.00;;;;;;5051152;28;20045;-71
2022/06/21 11:27:10;;;;;;;1.15;1.02;;;21.80;54.60;;;;;;5050313;28;20049;-70
2022/06/21 11:29:41;;;;;;;3.13;0.80;;;22.20;52.60;;;;;;5051559;28;20055;-70
2022/06/21 11:32:14;;;;;;;2.22;1.00;;;21.60;55.90;;;;;;5068379;28;20054;-70
2022/06/21 11:34:44;;;;;;;8.77;3.38;;;22.30;52.60;;;;;;5070530;28;20501;-70
2022/06/21 11:37:17;;;;;;;38.72;10.13;;;22.30;55.30;;;;;;5070422;28;20555;-70
2022/06/21 11:39:47;;;;;;;22.35;5.90;;;22.30;52.60;;;;;;5071909;28;20055;-71
2022/06/21 11:42:18;;;;;;;26.55;7.72;;;22.30;57.30;;;;;;5053628;28;20045;-70
2022/06/21 11:45:18;;;;;;;71.88;17.13;;;22.30;52.60;;;;;;5049788;28;20131;-71
2022/06/21 11:48:15;;;;;;;89.63;19.85;;;22.30;52.60;;;;;;5058535;28;20128;-70
2022/06/21 11:50:47;;;;;;;81.78;20.85;;;22.30;52.60;;;;;;5059704;28;20055;-71
2022/06/21 11:53:21;;;;;;;98.72;23.05;;;22.30;52.70;;;;;;5050815;28;20169;-70
2022/06/21 11:55:49;;;;;;;88.87;24.17;;;22.40;55.10;;;;;;5060221;28;20128;-70
2022/06/21 11:58:23;;;;;;;106.65;24.45;;;22.30;52.70;;;;;;5057921;28;20255;-70
2022/06/21 12:00:53;;;;;;;112.18;25.73;;;22.30;52.70;;;;;;5056695;28;20412;-70
2022/06/21 12:03:26;;;;;;;122.22;27.60;;;22.10;55.20;;;;;;5058508;28;20040;-70
2022/06/21 12:05:54;;;;;;;111.00;27.67;;;22.20;56.90;;;;;;5068359;28;20553;-70
2022/06/21 12:08:23;;;;;;;118.85;31.60;;;22.30;52.70;;;;;;5064281;28;20045;-71
2022/06/21 12:10:50;;;;;;;128.40;32.80;;;22.30;52.70;;;;;;5050933;28;20049;-70
2022/06/21 12:13:35;;;;;;;141.73;35.92;;;22.20;57.10;;;;;;5049778;28;20052;-71
2022/06/21 12:16:22;;;;;;;133.52;36.38;;;21.90;53.70;;;;;;5049585;28;20067;-70
2022/06/21 12:18:50;;;;;;;150.55;38.88;;;22.20;56.90;;;;;;5058587;28;20055;-69
2022/06/21 12:21:18;;;;;;;146.93;38.25;;;21.30;55.50;;;;;;5050265;28;20762;-70
2022/06/21 12:23:46;;;;;;;155.85;39.40;;;22.30;52.90;;;;;;5050359;28;20048;-70
2022/06/21 12:26:15;;;;;;;153.63;39.70;;;22.20;57.00;;;;;;5049564;28;20079;-70
2022/06/21 12:28:42;;;;;;;144.07;38.55;;;22.30;52.90;;;;;;5057713;28;20045;-71
2022/06/21 12:31:14;;;;;;;240.50;58.40;;;22.20;56.20;;;;;;5067645;28;20051;-70
2022/06/21 12:33:43;;;;;;;201.52;53.97;;;21.30;56.20;;;;;;5067526;28;20420;-71
2022/06/21 12:36:20;;;;;;;178.52;48.97;;;22.20;56.80;;;;;;5050458;28;20049;-71
2022/06/21 12:38:49;;;;;;;211.52;55.97;;;22.30;52.90;;;;;;5050716;28;20049;-71
2022/06/21 12:41:21;;;;;;;232.32;59.53;;;21.40;56.70;;;;;;5050473;28;20049;-70
2022/06/21 12:43:51;;;;;;;233.93;54.17;;;22.50;57.70;;;;;;5058404;28;20048;-70
2022/06/21 12:46:21;;;;;;;196.43;53.22;;;22.30;53.10;;;;;;5070573;28;20052;-71
2022/06/21 12:48:58;;;;;;;194.13;50.83;;;22.30;57.30;;;;;;5069322;28;20052;-71
2022/06/21 12:51:29;;;;;;;190.00;56.35;;;22.20;57.30;;;;;;5070685;28;20051;-70
2022/06/21 12:54:14;;;;;;;170.75;50.03;;;22.10;57.00;;;;;;5068949;28;20051;-69
2022/06/21 12:56:49;;;;;;;;;;;22.30;53.20;;;;;;5068182;28;20127;-70
2022/06/21 12:59:32;;;;;;;165.68;46.55;;;22.20;56.90;;;;;;5068756;28;20373;-70
2022/06/21 13:02:10;;;;;;;170.02;47.63;;;22.20;53.30;;;;;;5069450;28;20076;-70
2022/06/21 13:04:47;;;;;;;154.68;46.05;;;22.30;57.00;;;;;;5069750;28;20495;-70
2022/06/21 13:07:26;;;;;;;160.05;44.15;;;22.90;55.80;;;;;;5070155;28;20048;-70
2022/06/21 13:10:11;;;;;;;155.23;46.63;;;23.60;57.80;;;;;;5067978;28;20502;-70
2022/06/21 13:13:04;;;;;;;161.25;44.53;;;22.00;56.60;;;;;;5069802;28;20062;-70
2022/06/21 13:15:38;;;;;;;149.68;45.15;;;22.30;53.30;;;;;;5069826;28;20048;-70
2022/06/21 13:18:38;;;;;;;142.75;42.22;;;22.20;53.30;;;;;;5067516;28;20140;-70